createdAt,value
2023-02-19T00:03:18.400Z,1.65
2023-02-19T00:08:20.131Z,1.23
2023-02-19T00:13:22.012Z,1.50
2023-02-19T00:18:24.475Z,2.50
2023-02-19T00:23:27.091Z,1.48
2023-02-19T00:28:28.807Z,1.77
2023-02-19T00:33:30.999Z,1.50
2023-02-19T00:38:36.106Z,2.30
2023-02-19T00:43:37.861Z,1.60
2023-02-19T00:48:39.646Z,1.60
2023-02-19T00:53:42.038Z,2.97
2023-02-19T00:58:44.025Z,1.02
2023-02-19T01:03:46.765Z,1.10
2023-02-19T01:08:49.129Z,1.17
2023-02-19T01:13:50.944Z,1.23
2023-02-19T01:18:53.057Z,1.48
2023-02-19T01:23:55.690Z,7.00
2023-02-19T01:28:58.109Z,1.30
2023-02-19T01:34:01.813Z,1.60
2023-02-19T01:39:06.118Z,1.90
2023-02-19T01:44:13.930Z,2.47
2023-02-19T01:49:25.712Z,3.60
2023-02-19T01:54:31.119Z,2.05
2023-02-19T01:59:34.229Z,1.67
2023-02-19T02:04:36.412Z,1.70
2023-02-19T02:09:57.179Z,1.23
2023-02-19T02:14:58.988Z,1.30
2023-02-19T02:20:15.814Z,1.20
2023-02-19T02:25:51.259Z,1.10
2023-02-19T02:30:58.199Z,0.85
2023-02-19T02:36:08.133Z,1.15
2023-02-19T02:41:10.709Z,0.60
2023-02-19T02:46:22.758Z,0.70
2023-02-19T02:51:30.542Z,0.70
2023-02-19T02:56:34.325Z,1.17
2023-02-19T03:02:06.879Z,0.45
2023-02-19T03:07:10.383Z,0.63
2023-02-19T03:12:34.036Z,0.30
2023-02-19T03:18:11.521Z,0.30
2023-02-19T03:23:16.103Z,0.30
2023-02-19T03:28:42.780Z,0.38
2023-02-19T03:33:47.524Z,0.32
2023-02-19T03:39:00.774Z,0.57
2023-02-19T03:44:02.525Z,0.52
2023-02-19T03:49:28.237Z,0.35
2023-02-19T03:54:38.532Z,1.13
2023-02-19T03:59:49.593Z,1.35
2023-02-19T04:04:56.366Z,1.45
2023-02-19T04:09:58.646Z,1.58
2023-02-19T04:15:05.187Z,3.05
2023-02-19T04:20:09.931Z,1.80
2023-02-19T04:25:11.866Z,1.27
2023-02-19T04:30:14.809Z,1.20
2023-02-19T04:35:17.316Z,1.30
2023-02-19T04:40:19.310Z,1.73
2023-02-19T04:45:21.101Z,1.08
2023-02-19T04:50:23.362Z,1.45
2023-02-19T04:55:25.152Z,1.02
2023-02-19T05:00:26.907Z,1.65
2023-02-19T05:05:28.762Z,1.52
2023-02-19T05:10:30.665Z,1.05
2023-02-19T05:15:32.862Z,1.58
2023-02-19T05:20:34.749Z,2.97
2023-02-19T05:25:36.583Z,15.48
2023-02-19T05:30:38.352Z,2.58
2023-02-19T05:35:44.822Z,2.22
2023-02-19T05:40:47.646Z,1.10
2023-02-19T05:45:49.820Z,1.67
2023-02-19T05:50:51.551Z,1.20
2023-02-19T05:55:53.264Z,0.90
2023-02-19T06:00:55.927Z,3.10
2023-02-19T06:05:57.657Z,2.30
2023-02-19T06:10:59.964Z,1.35
2023-02-19T06:16:05.597Z,1.10
2023-02-19T06:21:10.906Z,1.08
2023-02-19T06:26:15.132Z,1.27
2023-02-19T06:31:18.550Z,1.90
2023-02-19T06:36:21.996Z,1.20
2023-02-19T06:41:24.230Z,1.45
2023-02-19T06:46:26.681Z,0.73
2023-02-19T06:51:29.668Z,1.50
2023-02-19T06:56:35.780Z,1.30
2023-02-19T07:01:38.510Z,1.85
2023-02-19T07:06:40.743Z,1.20
2023-02-19T07:11:43.030Z,1.60
2023-02-19T07:16:47.374Z,2.00
2023-02-19T07:21:49.291Z,2.95
2023-02-19T07:26:51.266Z,1.83
2023-02-19T07:31:53.032Z,2.58
2023-02-19T07:36:55.194Z,2.45
2023-02-19T07:41:58.049Z,2.17
2023-02-19T07:47:00.223Z,2.38
2023-02-19T07:52:02.421Z,2.03
2023-02-19T07:57:04.361Z,2.25
2023-02-19T08:02:34.437Z,2.45
2023-02-19T08:07:37.294Z,1.63
2023-02-19T08:12:57.666Z,2.92
2023-02-19T08:17:59.480Z,1.95
2023-02-19T08:23:01.296Z,3.10
2023-02-19T08:28:03.645Z,4.30
2023-02-19T08:33:07.360Z,2.80
2023-02-19T08:38:10.927Z,3.17
2023-02-19T08:43:15.754Z,3.05
2023-02-19T08:48:17.927Z,5.40
2023-02-19T08:53:19.683Z,2.47
2023-02-19T08:58:22.085Z,1.60
2023-02-19T09:03:23.923Z,2.20
2023-02-19T09:08:26.173Z,1.73
2023-02-19T09:13:28.209Z,3.13
2023-02-19T09:18:30.021Z,2.53
2023-02-19T09:23:36.501Z,2.70
2023-02-19T09:28:41.789Z,1.90
2023-02-19T09:33:45.306Z,2.33
2023-02-19T09:38:47.217Z,1.85
2023-02-19T09:43:49.217Z,1.60
2023-02-19T09:48:53.778Z,1.50
2023-02-19T09:53:58.585Z,2.40
2023-02-19T09:59:00.832Z,2.53
2023-02-19T10:04:03.774Z,2.30
2023-02-19T10:09:15.156Z,4.63
2023-02-19T10:19:31.538Z,7.90
2023-02-19T10:24:33.604Z,2.45
2023-02-19T10:29:35.348Z,4.25
2023-02-19T10:34:37.124Z,1.98
2023-02-19T10:39:43.662Z,4.00
2023-02-19T10:44:51.591Z,3.05
2023-02-19T10:49:57.605Z,3.83
2023-02-19T10:55:28.343Z,4.95
2023-02-19T11:00:30.893Z,2.97
2023-02-19T11:05:32.892Z,3.47
2023-02-19T11:10:42.525Z,4.70
2023-02-19T11:15:51.234Z,6.13
2023-02-19T11:21:24.954Z,4.32
2023-02-19T11:26:30.396Z,6.25
2023-02-19T11:31:35.420Z,7.10
2023-02-19T11:36:38.389Z,8.48
2023-02-19T11:42:00.945Z,5.05
2023-02-19T11:47:20.665Z,2.85
2023-02-19T11:53:07.634Z,3.95
2023-02-19T11:58:42.929Z,7.35
2023-02-19T12:03:47.525Z,2.75
2023-02-19T12:09:05.219Z,1.98
2023-02-19T12:14:37.044Z,2.03
2023-02-19T12:20:11.391Z,5.20
2023-02-19T12:25:27.534Z,5.32
2023-02-19T12:30:43.499Z,2.83
2023-02-19T12:35:51.622Z,2.83
2023-02-19T12:41:02.669Z,2.47
2023-02-19T12:46:21.572Z,4.45
2023-02-19T12:51:45.638Z,7.32
2023-02-19T12:56:57.698Z,6.00
2023-02-19T13:02:14.547Z,4.53
2023-02-19T13:07:35.697Z,4.07
2023-02-19T13:12:40.643Z,3.03
2023-02-19T13:17:52.199Z,5.75
2023-02-19T13:23:23.358Z,3.00
2023-02-19T13:28:37.108Z,5.40
2023-02-19T13:34:09.631Z,5.97
2023-02-19T13:44:26.292Z,8.20
2023-02-19T13:49:28.157Z,3.35
2023-02-19T13:54:37.197Z,15.93
2023-02-19T13:59:40.480Z,4.25
2023-02-19T14:04:53.283Z,4.47
2023-02-19T14:09:55.254Z,3.50
2023-02-19T14:14:57.829Z,2.78
2023-02-19T14:20:14.824Z,7.95
2023-02-19T14:25:22.748Z,4.68
2023-02-19T14:30:24.909Z,4.82
2023-02-19T14:35:35.165Z,9.73
2023-02-19T14:40:41.658Z,7.07
2023-02-19T14:46:17.602Z,8.93
2023-02-19T14:51:32.518Z,12.60
2023-02-19T14:56:35.446Z,7.20
2023-02-19T15:01:38.035Z,3.78
2023-02-19T15:06:40.217Z,2.60
2023-02-19T15:11:43.379Z,4.63
2023-02-19T15:16:45.393Z,5.57
2023-02-19T15:21:48.353Z,5.32
2023-02-19T15:26:54.083Z,13.18
2023-02-19T15:31:58.256Z,14.60
2023-02-19T15:37:06.498Z,4.50
2023-02-19T15:42:12.083Z,5.40
2023-02-19T15:47:16.984Z,5.25
2023-02-19T15:52:26.008Z,8.73
2023-02-19T15:57:33.724Z,5.72
2023-02-19T16:02:36.068Z,7.63
2023-02-19T16:07:37.949Z,4.72
2023-02-19T16:12:40.968Z,10.60
2023-02-19T16:17:44.563Z,10.25
2023-02-19T16:22:46.885Z,4.43
2023-02-19T16:27:48.879Z,8.27
2023-02-19T16:33:34.827Z,5.88
2023-02-19T16:38:36.736Z,8.52
2023-02-19T16:43:43.527Z,6.45
2023-02-19T16:48:45.563Z,6.35
2023-02-19T16:53:47.478Z,5.25
2023-02-19T16:58:51.291Z,12.95
2023-02-19T17:03:57.761Z,10.00
2023-02-19T17:08:59.520Z,13.15
2023-02-19T17:14:01.267Z,13.60
2023-02-19T17:19:05.615Z,11.30
2023-02-19T17:24:08.025Z,8.75
2023-02-19T17:29:14.951Z,11.55
2023-02-19T17:34:16.776Z,10.95
2023-02-19T17:39:19.357Z,46.95
2023-02-19T17:44:21.211Z,8.80
2023-02-19T17:49:23.012Z,15.32
2023-02-19T17:54:24.802Z,7.25
2023-02-19T17:59:26.864Z,5.90
2023-02-19T18:04:29.138Z,5.97
2023-02-19T18:09:30.937Z,7.63
2023-02-19T18:14:32.714Z,6.93
2023-02-19T18:19:34.462Z,7.38
2023-02-19T18:24:36.311Z,17.65
2023-02-19T18:29:38.043Z,12.52
2023-02-19T18:34:39.753Z,9.55
2023-02-19T18:39:41.478Z,8.18
2023-02-19T18:44:46.765Z,13.00
2023-02-19T18:49:49.695Z,6.95
2023-02-19T18:54:53.451Z,6.25
2023-02-19T18:59:55.231Z,18.60
2023-02-19T19:04:57.187Z,14.18
2023-02-19T19:09:59.022Z,6.78
2023-02-19T19:15:00.797Z,16.30
2023-02-19T19:20:02.628Z,17.20
2023-02-19T19:25:04.614Z,8.70
2023-02-19T19:30:07.380Z,17.75
2023-02-19T19:35:09.999Z,28.50
2023-02-19T19:40:12.566Z,13.13
2023-02-19T19:45:15.428Z,13.50
2023-02-19T19:50:18.515Z,10.30
2023-02-19T19:55:21.778Z,12.25
2023-02-19T20:00:24.663Z,9.85
2023-02-19T20:05:26.712Z,13.05
2023-02-19T20:10:28.617Z,19.25
2023-02-19T20:15:30.671Z,9.40
2023-02-19T20:20:32.499Z,16.42
2023-02-19T20:25:34.233Z,8.07
2023-02-19T20:30:37.311Z,14.38
2023-02-19T20:35:39.142Z,10.60
2023-02-19T20:40:40.924Z,12.32
2023-02-19T20:45:45.882Z,25.33
2023-02-19T20:50:47.753Z,10.02
2023-02-19T20:55:49.520Z,7.20
2023-02-19T21:00:53.830Z,14.63
2023-02-19T21:05:55.591Z,6.50
2023-02-19T21:10:57.454Z,16.92
2023-02-19T21:15:59.386Z,7.82
2023-02-19T21:21:01.211Z,11.77
2023-02-19T21:26:03.424Z,13.40
2023-02-19T21:31:05.361Z,18.13
2023-02-19T21:36:07.575Z,20.42
2023-02-19T21:41:09.682Z,13.15
2023-02-19T21:46:18.592Z,13.60
2023-02-19T21:51:23.837Z,11.90
2023-02-19T21:56:31.044Z,11.00
2023-02-19T22:01:38.553Z,11.27
2023-02-19T22:06:40.997Z,19.48
2023-02-19T22:11:42.850Z,9.88
2023-02-19T22:16:44.694Z,8.07
2023-02-19T22:21:46.695Z,7.47
2023-02-19T22:26:50.621Z,7.85
2023-02-19T22:31:52.925Z,11.52
2023-02-19T22:36:54.852Z,6.22
2023-02-19T22:41:56.584Z,10.73
2023-02-19T22:46:58.383Z,5.90
2023-02-19T22:52:07.471Z,12.57
2023-02-19T22:57:09.499Z,10.80
2023-02-19T23:02:11.307Z,15.63
2023-02-19T23:07:13.134Z,10.55
2023-02-19T23:12:15.111Z,12.57
2023-02-19T23:17:16.930Z,8.60
2023-02-19T23:22:18.677Z,10.35
2023-02-19T23:27:20.728Z,7.88
2023-02-19T23:32:23.796Z,9.05
2023-02-19T23:37:25.934Z,13.13
2023-02-19T23:42:28.455Z,12.63
2023-02-19T23:47:30.782Z,7.22
2023-02-19T23:52:32.618Z,9.95
2023-02-19T23:57:34.607Z,8.90
